Terminal Aerodrome Forecast
Issued by NWS

Home | Current Version | Previous Version | Text Only | Print | Product List | Glossary On
Versions: 1 2 3 4 5 6 7 8 9 10 11 12 13 14 15 16
000
FTUS42 KFFC 031400 AAA
TAFRYY
TAF AMD
KRYY 031400Z 0314/0412 32006KT P6SM BKN120
     FM031700 03005KT P6SM BKN100
     FM032300 00000KT P6SM VCSH OVC060
     FM040300 00000KT 5SM -RADZ OVC040
     FM040800 08007KT 4SM -RADZ OVC025=

USA.gov is the U.S. government's official web portal to all federal, state and local government web resources and services.